sensor_id;sensor_type;location;lat;lon;timestamp;P1;durP1;ratioP1;P2;durP2;ratioP2
2406;SDS011;37709;53.480;9.688;2023-03-25T00:00:13;4.80;;;4.30;;
2406;SDS011;37709;53.480;9.688;2023-03-25T00:02:44;5.43;;;3.70;;
2406;SDS011;37709;53.480;9.688;2023-03-25T00:05:14;5.40;;;4.90;;
2406;SDS011;37709;53.480;9.688;2023-03-25T00:07:44;4.60;;;3.87;;
2406;SDS011;37709;53.480;9.688;2023-03-25T00:10:13;5.57;;;4.90;;
2406;SDS011;37709;53.480;9.688;2023-03-25T00:12:41;7.70;;;4.33;;
2406;SDS011;37709;53.480;9.688;2023-03-25T00:15:09;5.20;;;4.33;;
2406;SDS011;37709;53.480;9.688;2023-03-25T00:17:38;5.13;;;4.10;;
2406;SDS011;37709;53.480;9.688;2023-03-25T00:20:06;5.47;;;4.30;;
2406;SDS011;37709;53.480;9.688;2023-03-25T00:22:37;6.00;;;3.30;;
2406;SDS011;37709;53.480;9.688;2023-03-25T00:25:11;7.30;;;4.40;;
2406;SDS011;37709;53.480;9.688;2023-03-25T00:27:44;6.80;;;4.40;;
2406;SDS011;37709;53.480;9.688;2023-03-25T00:30:13;6.07;;;4.40;;
2406;SDS011;37709;53.480;9.688;2023-03-25T00:32:41;9.10;;;4.50;;
2406;SDS011;37709;53.480;9.688;2023-03-25T00:35:15;6.00;;;3.70;;
2406;SDS011;37709;53.480;9.688;2023-03-25T00:37:45;5.30;;;4.03;;
2406;SDS011;37709;53.480;9.688;2023-03-25T00:40:14;4.60;;;4.20;;
2406;SDS011;37709;53.480;9.688;2023-03-25T00:42:41;5.73;;;4.30;;
2406;SDS011;37709;53.480;9.688;2023-03-25T00:45:11;4.97;;;4.13;;
2406;SDS011;37709;53.480;9.688;2023-03-25T00:47:38;7.50;;;3.90;;
2406;SDS011;37709;53.480;9.688;2023-03-25T00:50:05;5.57;;;4.40;;
2406;SDS011;37709;53.480;9.688;2023-03-25T00:52:33;7.57;;;4.57;;
2406;SDS011;37709;53.480;9.688;2023-03-25T00:55:00;4.20;;;3.80;;
2406;SDS011;37709;53.480;9.688;2023-03-25T00:57:28;4.17;;;3.77;;
2406;SDS011;37709;53.480;9.688;2023-03-25T00:59:56;4.70;;;3.80;;
2406;SDS011;37709;53.480;9.688;2023-03-25T01:02:24;5.70;;;4.17;;
2406;SDS011;37709;53.480;9.688;2023-03-25T01:04:52;6.40;;;3.77;;
2406;SDS011;37709;53.480;9.688;2023-03-25T01:07:20;4.63;;;4.23;;
2406;SDS011;37709;53.480;9.688;2023-03-25T01:09:48;5.03;;;4.00;;
2406;SDS011;37709;53.480;9.688;2023-03-25T01:12:16;3.30;;;2.37;;
2406;SDS011;37709;53.480;9.688;2023-03-25T01:14:45;8.97;;;4.33;;
2406;SDS011;37709;53.480;9.688;2023-03-25T01:17:13;5.63;;;3.90;;
2406;SDS011;37709;53.480;9.688;2023-03-25T01:19:41;4.83;;;3.50;;
2406;SDS011;37709;53.480;9.688;2023-03-25T01:22:08;5.13;;;3.17;;
2406;SDS011;37709;53.480;9.688;2023-03-25T01:24:35;6.53;;;3.63;;
2406;SDS011;37709;53.480;9.688;2023-03-25T01:27:03;5.67;;;3.67;;
2406;SDS011;37709;53.480;9.688;2023-03-25T01:29:31;6.40;;;3.17;;
2406;SDS011;37709;53.480;9.688;2023-03-25T01:31:58;5.20;;;3.07;;
2406;SDS011;37709;53.480;9.688;2023-03-25T01:34:25;6.20;;;4.60;;
2406;SDS011;37709;53.480;9.688;2023-03-25T01:36:53;5.90;;;3.20;;
2406;SDS011;37709;53.480;9.688;2023-03-25T01:39:21;5.10;;;3.80;;
2406;SDS011;37709;53.480;9.688;2023-03-25T01:41:48;4.20;;;3.67;;
2406;SDS011;37709;53.480;9.688;2023-03-25T01:46:45;5.33;;;3.30;;
2406;SDS011;37709;53.480;9.688;2023-03-25T01:49:15;4.10;;;3.70;;
2406;SDS011;37709;53.480;9.688;2023-03-25T01:51:50;4.43;;;3.77;;
2406;SDS011;37709;53.480;9.688;2023-03-25T01:54:21;5.30;;;2.83;;
2406;SDS011;37709;53.480;9.688;2023-03-25T01:56:48;3.70;;;3.40;;
2406;SDS011;37709;53.480;9.688;2023-03-25T01:59:18;4.23;;;3.00;;
2406;SDS011;37709;53.480;9.688;2023-03-25T02:01:50;5.37;;;3.87;;
2406;SDS011;37709;53.480;9.688;2023-03-25T02:07:27;8.77;;;3.13;;
2406;SDS011;37709;53.480;9.688;2023-03-25T02:09:58;4.93;;;3.37;;
2406;SDS011;37709;53.480;9.688;2023-03-25T02:12:28;4.97;;;3.13;;
2406;SDS011;37709;53.480;9.688;2023-03-25T02:14:56;4.13;;;3.37;;
2406;SDS011;37709;53.480;9.688;2023-03-25T02:23:25;5.30;;;3.57;;
2406;SDS011;37709;53.480;9.688;2023-03-25T02:29:31;3.80;;;3.07;;
2406;SDS011;37709;53.480;9.688;2023-03-25T02:35:28;5.47;;;2.77;;
2406;SDS011;37709;53.480;9.688;2023-03-25T02:41:05;5.30;;;3.03;;
2406;SDS011;37709;53.480;9.688;2023-03-25T02:43:39;4.17;;;3.20;;
2406;SDS011;37709;53.480;9.688;2023-03-25T02:46:20;6.40;;;2.70;;
2406;SDS011;37709;53.480;9.688;2023-03-25T02:48:52;4.30;;;2.83;;
2406;SDS011;37709;53.480;9.688;2023-03-25T02:51:54;4.63;;;2.90;;
2406;SDS011;37709;53.480;9.688;2023-03-25T02:54:28;3.27;;;2.30;;
2406;SDS011;37709;53.480;9.688;2023-03-25T02:56:59;5.40;;;3.23;;
2406;SDS011;37709;53.480;9.688;2023-03-25T02:59:28;3.67;;;3.07;;
2406;SDS011;37709;53.480;9.688;2023-03-25T03:01:59;6.73;;;3.10;;
2406;SDS011;37709;53.480;9.688;2023-03-25T03:04:30;5.87;;;2.87;;
2406;SDS011;37709;53.480;9.688;2023-03-25T03:06:57;4.67;;;3.20;;
2406;SDS011;37709;53.480;9.688;2023-03-25T03:09:37;4.70;;;2.80;;
2406;SDS011;37709;53.480;9.688;2023-03-25T03:12:16;4.50;;;2.60;;
2406;SDS011;37709;53.480;9.688;2023-03-25T03:14:58;2.87;;;2.67;;
2406;SDS011;37709;53.480;9.688;2023-03-25T03:17:34;6.50;;;2.90;;
2406;SDS011;37709;53.480;9.688;2023-03-25T03:20:20;4.87;;;2.60;;
2406;SDS011;37709;53.480;9.688;2023-03-25T03:23:09;4.57;;;2.90;;
2406;SDS011;37709;53.480;9.688;2023-03-25T03:25:50;5.57;;;2.53;;
2406;SDS011;37709;53.480;9.688;2023-03-25T03:28:24;3.90;;;2.77;;
2406;SDS011;37709;53.480;9.688;2023-03-25T03:31:03;3.33;;;2.53;;
2406;SDS011;37709;53.480;9.688;2023-03-25T03:33:39;4.80;;;2.87;;
2406;SDS011;37709;53.480;9.688;2023-03-25T03:36:13;3.50;;;2.00;;
2406;SDS011;37709;53.480;9.688;2023-03-25T03:38:45;3.13;;;2.60;;
2406;SDS011;37709;53.480;9.688;2023-03-25T03:41:19;4.20;;;2.67;;
2406;SDS011;37709;53.480;9.688;2023-03-25T03:43:51;3.97;;;2.70;;
2406;SDS011;37709;53.480;9.688;2023-03-25T03:46:26;5.20;;;2.93;;
2406;SDS011;37709;53.480;9.688;2023-03-25T03:49:12;4.67;;;2.97;;
2406;SDS011;37709;53.480;9.688;2023-03-25T03:51:51;3.03;;;2.27;;
2406;SDS011;37709;53.480;9.688;2023-03-25T03:54:25;5.17;;;3.60;;
2406;SDS011;37709;53.480;9.688;2023-03-25T03:57:03;2.57;;;2.20;;
2406;SDS011;37709;53.480;9.688;2023-03-25T03:59:41;5.50;;;2.80;;
2406;SDS011;37709;53.480;9.688;2023-03-25T04:02:39;2.67;;;2.00;;
2406;SDS011;37709;53.480;9.688;2023-03-25T04:05:11;5.13;;;2.70;;
2406;SDS011;37709;53.480;9.688;2023-03-25T04:07:55;2.70;;;2.50;;
2406;SDS011;37709;53.480;9.688;2023-03-25T04:10:33;2.93;;;2.33;;
2406;SDS011;37709;53.480;9.688;2023-03-25T04:13:19;3.53;;;2.63;;
2406;SDS011;37709;53.480;9.688;2023-03-25T04:15:48;6.63;;;2.80;;
2406;SDS011;37709;53.480;9.688;2023-03-25T04:18:16;2.93;;;2.37;;
2406;SDS011;37709;53.480;9.688;2023-03-25T04:20:43;2.03;;;1.83;;
2406;SDS011;37709;53.480;9.688;2023-03-25T04:23:15;6.50;;;2.67;;
2406;SDS011;37709;53.480;9.688;2023-03-25T04:25:42;5.63;;;3.13;;
2406;SDS011;37709;53.480;9.688;2023-03-25T04:28:13;5.63;;;3.10;;
2406;SDS011;37709;53.480;9.688;2023-03-25T04:30:44;3.80;;;2.60;;
2406;SDS011;37709;53.480;9.688;2023-03-25T04:33:12;4.03;;;3.10;;
2406;SDS011;37709;53.480;9.688;2023-03-25T04:35:40;6.20;;;3.33;;
2406;SDS011;37709;53.480;9.688;2023-03-25T04:38:07;5.10;;;3.40;;
2406;SDS011;37709;53.480;9.688;2023-03-25T04:40:34;7.37;;;3.23;;
2406;SDS011;37709;53.480;9.688;2023-03-25T04:43:02;6.87;;;3.73;;
2406;SDS011;37709;53.480;9.688;2023-03-25T04:45:29;4.50;;;2.97;;
2406;SDS011;37709;53.480;9.688;2023-03-25T04:48:02;7.90;;;3.70;;
2406;SDS011;37709;53.480;9.688;2023-03-25T04:50:31;8.17;;;3.30;;
2406;SDS011;37709;53.480;9.688;2023-03-25T04:52:59;4.37;;;2.80;;
2406;SDS011;37709;53.480;9.688;2023-03-25T04:55:27;4.50;;;3.00;;
2406;SDS011;37709;53.480;9.688;2023-03-25T04:57:55;6.23;;;3.07;;
2406;SDS011;37709;53.480;9.688;2023-03-25T05:00:23;5.73;;;3.23;;
2406;SDS011;37709;53.480;9.688;2023-03-25T05:02:52;6.10;;;2.57;;
2406;SDS011;37709;53.480;9.688;2023-03-25T05:05:22;4.43;;;3.10;;
2406;SDS011;37709;53.480;9.688;2023-03-25T05:07:51;4.83;;;2.73;;
2406;SDS011;37709;53.480;9.688;2023-03-25T05:10:21;4.93;;;2.90;;
2406;SDS011;37709;53.480;9.688;2023-03-25T05:12:49;4.33;;;2.87;;
2406;SDS011;37709;53.480;9.688;2023-03-25T05:15:23;3.70;;;2.60;;
2406;SDS011;37709;53.480;9.688;2023-03-25T05:17:50;7.77;;;3.20;;
2406;SDS011;37709;53.480;9.688;2023-03-25T05:20:18;4.23;;;2.63;;
2406;SDS011;37709;53.480;9.688;2023-03-25T05:22:48;5.70;;;3.00;;
2406;SDS011;37709;53.480;9.688;2023-03-25T05:25:15;4.80;;;2.90;;
2406;SDS011;37709;53.480;9.688;2023-03-25T05:27:43;4.87;;;2.83;;
2406;SDS011;37709;53.480;9.688;2023-03-25T05:30:12;2.87;;;2.67;;
2406;SDS011;37709;53.480;9.688;2023-03-25T05:32:41;3.43;;;3.13;;
2406;SDS011;37709;53.480;9.688;2023-03-25T05:35:11;4.07;;;2.70;;
2406;SDS011;37709;53.480;9.688;2023-03-25T05:37:38;5.57;;;2.67;;
2406;SDS011;37709;53.480;9.688;2023-03-25T05:40:06;4.33;;;2.43;;
2406;SDS011;37709;53.480;9.688;2023-03-25T05:42:41;4.17;;;2.80;;
2406;SDS011;37709;53.480;9.688;2023-03-25T05:45:12;6.47;;;3.00;;
2406;SDS011;37709;53.480;9.688;2023-03-25T05:47:42;7.23;;;3.37;;
2406;SDS011;37709;53.480;9.688;2023-03-25T05:50:10;6.23;;;3.90;;
2406;SDS011;37709;53.480;9.688;2023-03-25T05:52:37;4.80;;;2.90;;
2406;SDS011;37709;53.480;9.688;2023-03-25T05:55:14;5.27;;;2.50;;
2406;SDS011;37709;53.480;9.688;2023-03-25T05:57:46;7.57;;;3.37;;
2406;SDS011;37709;53.480;9.688;2023-03-25T06:00:15;4.73;;;3.57;;
2406;SDS011;37709;53.480;9.688;2023-03-25T06:02:45;6.97;;;4.40;;
2406;SDS011;37709;53.480;9.688;2023-03-25T06:05:13;9.10;;;3.67;;
2406;SDS011;37709;53.480;9.688;2023-03-25T06:07:44;10.33;;;3.93;;
2406;SDS011;37709;53.480;9.688;2023-03-25T06:10:13;6.67;;;3.80;;
2406;SDS011;37709;53.480;9.688;2023-03-25T06:12:45;3.60;;;2.50;;
2406;SDS011;37709;53.480;9.688;2023-03-25T06:15:14;6.90;;;3.63;;
2406;SDS011;37709;53.480;9.688;2023-03-25T06:17:55;6.30;;;2.43;;
2406;SDS011;37709;53.480;9.688;2023-03-25T06:20:22;6.77;;;4.13;;
2406;SDS011;37709;53.480;9.688;2023-03-25T06:22:50;3.77;;;3.10;;
2406;SDS011;37709;53.480;9.688;2023-03-25T06:25:18;9.10;;;4.63;;
2406;SDS011;37709;53.480;9.688;2023-03-25T06:27:47;7.57;;;3.70;;
2406;SDS011;37709;53.480;9.688;2023-03-25T06:30:17;7.97;;;3.20;;
2406;SDS011;37709;53.480;9.688;2023-03-25T06:32:47;6.37;;;3.10;;
2406;SDS011;37709;53.480;9.688;2023-03-25T06:35:17;9.10;;;3.60;;
2406;SDS011;37709;53.480;9.688;2023-03-25T06:37:47;7.17;;;3.90;;
2406;SDS011;37709;53.480;9.688;2023-03-25T06:40:35;9.20;;;4.20;;
2406;SDS011;37709;53.480;9.688;2023-03-25T06:43:06;5.67;;;4.13;;
2406;SDS011;37709;53.480;9.688;2023-03-25T06:46:12;7.47;;;4.20;;
2406;SDS011;37709;53.480;9.688;2023-03-25T06:49:08;7.83;;;4.13;;
2406;SDS011;37709;53.480;9.688;2023-03-25T06:51:36;4.00;;;3.20;;
2406;SDS011;37709;53.480;9.688;2023-03-25T06:54:03;10.43;;;4.00;;
2406;SDS011;37709;53.480;9.688;2023-03-25T06:56:31;5.00;;;3.33;;
2406;SDS011;37709;53.480;9.688;2023-03-25T06:58:58;5.33;;;3.37;;
2406;SDS011;37709;53.480;9.688;2023-03-25T07:01:27;8.47;;;3.87;;
2406;SDS011;37709;53.480;9.688;2023-03-25T07:03:54;6.20;;;3.00;;
2406;SDS011;37709;53.480;9.688;2023-03-25T07:06:22;5.87;;;3.50;;
2406;SDS011;37709;53.480;9.688;2023-03-25T07:08:50;6.97;;;3.70;;
2406;SDS011;37709;53.480;9.688;2023-03-25T07:11:24;6.37;;;3.33;;
2406;SDS011;37709;53.480;9.688;2023-03-25T07:13:54;8.23;;;3.50;;
2406;SDS011;37709;53.480;9.688;2023-03-25T07:16:23;7.30;;;3.53;;
2406;SDS011;37709;53.480;9.688;2023-03-25T07:18:52;6.67;;;3.33;;
2406;SDS011;37709;53.480;9.688;2023-03-25T07:21:21;7.90;;;3.60;;
2406;SDS011;37709;53.480;9.688;2023-03-25T07:23:49;7.27;;;3.83;;
2406;SDS011;37709;53.480;9.688;2023-03-25T07:26:17;3.93;;;2.07;;
2406;SDS011;37709;53.480;9.688;2023-03-25T07:28:45;4.07;;;2.37;;
2406;SDS011;37709;53.480;9.688;2023-03-25T07:31:14;5.53;;;2.93;;
2406;SDS011;37709;53.480;9.688;2023-03-25T07:33:42;5.63;;;2.50;;
2406;SDS011;37709;53.480;9.688;2023-03-25T07:36:10;6.03;;;2.63;;
2406;SDS011;37709;53.480;9.688;2023-03-25T07:38:39;4.87;;;3.20;;
2406;SDS011;37709;53.480;9.688;2023-03-25T07:41:08;4.53;;;2.03;;
2406;SDS011;37709;53.480;9.688;2023-03-25T07:43:39;8.43;;;2.50;;
2406;SDS011;37709;53.480;9.688;2023-03-25T07:46:27;4.73;;;2.47;;
2406;SDS011;37709;53.480;9.688;2023-03-25T07:48:55;5.33;;;2.57;;
2406;SDS011;37709;53.480;9.688;2023-03-25T07:51:22;7.17;;;2.90;;
2406;SDS011;37709;53.480;9.688;2023-03-25T07:53:50;6.60;;;2.40;;
2406;SDS011;37709;53.480;9.688;2023-03-25T07:56:17;4.23;;;2.30;;
2406;SDS011;37709;53.480;9.688;2023-03-25T07:58:45;5.53;;;2.90;;
2406;SDS011;37709;53.480;9.688;2023-03-25T08:01:13;4.30;;;2.87;;
2406;SDS011;37709;53.480;9.688;2023-03-25T08:03:40;3.33;;;2.20;;
2406;SDS011;37709;53.480;9.688;2023-03-25T08:06:08;4.90;;;2.30;;
2406;SDS011;37709;53.480;9.688;2023-03-25T08:08:35;4.13;;;2.40;;
2406;SDS011;37709;53.480;9.688;2023-03-25T08:11:03;6.90;;;3.07;;
2406;SDS011;37709;53.480;9.688;2023-03-25T08:13:30;5.53;;;2.40;;
2406;SDS011;37709;53.480;9.688;2023-03-25T08:15:57;4.10;;;2.60;;
2406;SDS011;37709;53.480;9.688;2023-03-25T08:18:25;7.43;;;2.70;;
2406;SDS011;37709;53.480;9.688;2023-03-25T08:20:52;6.87;;;3.13;;
2406;SDS011;37709;53.480;9.688;2023-03-25T08:23:19;6.00;;;2.40;;
2406;SDS011;37709;53.480;9.688;2023-03-25T08:25:48;4.73;;;3.03;;
2406;SDS011;37709;53.480;9.688;2023-03-25T08:28:18;4.70;;;2.43;;
2406;SDS011;37709;53.480;9.688;2023-03-25T08:30:49;5.10;;;2.83;;
2406;SDS011;37709;53.480;9.688;2023-03-25T08:33:21;7.77;;;3.70;;
2406;SDS011;37709;53.480;9.688;2023-03-25T08:35:55;5.90;;;3.70;;
2406;SDS011;37709;53.480;9.688;2023-03-25T08:38:23;4.00;;;2.83;;
2406;SDS011;37709;53.480;9.688;2023-03-25T08:40:51;2.90;;;2.10;;
2406;SDS011;37709;53.480;9.688;2023-03-25T08:43:18;3.80;;;2.10;;
2406;SDS011;37709;53.480;9.688;2023-03-25T08:45:46;4.80;;;2.33;;
2406;SDS011;37709;53.480;9.688;2023-03-25T08:48:14;2.63;;;1.63;;
2406;SDS011;37709;53.480;9.688;2023-03-25T08:50:41;2.30;;;1.60;;
2406;SDS011;37709;53.480;9.688;2023-03-25T08:53:08;1.77;;;1.50;;
2406;SDS011;37709;53.480;9.688;2023-03-25T08:55:36;2.57;;;1.47;;
2406;SDS011;37709;53.480;9.688;2023-03-25T08:58:04;4.00;;;1.50;;
2406;SDS011;37709;53.480;9.688;2023-03-25T09:00:35;2.13;;;1.60;;
2406;SDS011;37709;53.480;9.688;2023-03-25T09:03:03;2.27;;;1.57;;
2406;SDS011;37709;53.480;9.688;2023-03-25T09:05:32;2.17;;;1.20;;
2406;SDS011;37709;53.480;9.688;2023-03-25T09:08:03;3.17;;;2.00;;
2406;SDS011;37709;53.480;9.688;2023-03-25T09:10:31;2.20;;;1.37;;
2406;SDS011;37709;53.480;9.688;2023-03-25T09:12:58;4.80;;;1.73;;
2406;SDS011;37709;53.480;9.688;2023-03-25T09:15:26;4.90;;;1.60;;
2406;SDS011;37709;53.480;9.688;2023-03-25T09:17:53;3.00;;;1.70;;
2406;SDS011;37709;53.480;9.688;2023-03-25T09:20:20;3.20;;;1.20;;
2406;SDS011;37709;53.480;9.688;2023-03-25T09:22:48;2.30;;;1.50;;
2406;SDS011;37709;53.480;9.688;2023-03-25T09:25:16;3.97;;;1.60;;
2406;SDS011;37709;53.480;9.688;2023-03-25T09:27:43;4.60;;;1.50;;
2406;SDS011;37709;53.480;9.688;2023-03-25T09:30:11;4.13;;;1.37;;
2406;SDS011;37709;53.480;9.688;2023-03-25T09:32:38;2.77;;;1.70;;
2406;SDS011;37709;53.480;9.688;2023-03-25T09:35:06;1.83;;;1.70;;
2406;SDS011;37709;53.480;9.688;2023-03-25T09:37:34;3.40;;;1.80;;
2406;SDS011;37709;53.480;9.688;2023-03-25T09:40:02;4.07;;;1.80;;
2406;SDS011;37709;53.480;9.688;2023-03-25T09:51:02;3.00;;;1.30;;
2406;SDS011;37709;53.480;9.688;2023-03-25T09:53:52;2.40;;;1.50;;
2406;SDS011;37709;53.480;9.688;2023-03-25T09:56:28;2.37;;;1.23;;
2406;SDS011;37709;53.480;9.688;2023-03-25T10:04:48;3.03;;;1.40;;
2406;SDS011;37709;53.480;9.688;2023-03-25T10:15:41;4.37;;;1.50;;
2406;SDS011;37709;53.480;9.688;2023-03-25T10:18:27;5.77;;;1.80;;
2406;SDS011;37709;53.480;9.688;2023-03-25T10:21:21;4.00;;;1.10;;
2406;SDS011;37709;53.480;9.688;2023-03-25T10:24:22;3.27;;;1.73;;
2406;SDS011;37709;53.480;9.688;2023-03-25T10:29:57;2.73;;;1.70;;
2406;SDS011;37709;53.480;9.688;2023-03-25T10:32:40;4.80;;;1.50;;
2406;SDS011;37709;53.480;9.688;2023-03-25T10:35:20;2.83;;;1.17;;
2406;SDS011;37709;53.480;9.688;2023-03-25T10:38:00;4.10;;;1.60;;
2406;SDS011;37709;53.480;9.688;2023-03-25T10:40:41;2.80;;;1.20;;
2406;SDS011;37709;53.480;9.688;2023-03-25T10:45:44;5.67;;;1.77;;
2406;SDS011;37709;53.480;9.688;2023-03-25T10:48:15;4.30;;;1.67;;
2406;SDS011;37709;53.480;9.688;2023-03-25T10:50:47;4.57;;;2.43;;
2406;SDS011;37709;53.480;9.688;2023-03-25T10:53:18;6.23;;;2.10;;
2406;SDS011;37709;53.480;9.688;2023-03-25T10:55:53;4.67;;;2.40;;
2406;SDS011;37709;53.480;9.688;2023-03-25T10:58:28;4.43;;;2.20;;
2406;SDS011;37709;53.480;9.688;2023-03-25T11:00:58;3.67;;;2.43;;
2406;SDS011;37709;53.480;9.688;2023-03-25T11:03:29;8.67;;;2.20;;
2406;SDS011;37709;53.480;9.688;2023-03-25T11:05:59;6.93;;;1.83;;
2406;SDS011;37709;53.480;9.688;2023-03-25T11:08:26;6.07;;;2.00;;
2406;SDS011;37709;53.480;9.688;2023-03-25T11:10:54;4.87;;;2.20;;
2406;SDS011;37709;53.480;9.688;2023-03-25T11:13:26;4.70;;;1.20;;
2406;SDS011;37709;53.480;9.688;2023-03-25T11:15:58;2.83;;;1.10;;
2406;SDS011;37709;53.480;9.688;2023-03-25T11:18:29;1.87;;;0.83;;
2406;SDS011;37709;53.480;9.688;2023-03-25T11:21:07;0.70;;;0.70;;
2406;SDS011;37709;53.480;9.688;2023-03-25T11:23:48;1.70;;;1.03;;
2406;SDS011;37709;53.480;9.688;2023-03-25T11:26:21;1.30;;;0.93;;
2406;SDS011;37709;53.480;9.688;2023-03-25T11:28:55;3.47;;;1.73;;
2406;SDS011;37709;53.480;9.688;2023-03-25T11:31:28;2.40;;;1.30;;
2406;SDS011;37709;53.480;9.688;2023-03-25T11:34:17;3.00;;;1.37;;
2406;SDS011;37709;53.480;9.688;2023-03-25T11:36:54;2.10;;;1.40;;
2406;SDS011;37709;53.480;9.688;2023-03-25T11:42:12;2.60;;;1.17;;
2406;SDS011;37709;53.480;9.688;2023-03-25T11:44:55;3.40;;;0.90;;
2406;SDS011;37709;53.480;9.688;2023-03-25T11:47:26;1.83;;;1.00;;
2406;SDS011;37709;53.480;9.688;2023-03-25T11:49:57;1.20;;;0.70;;
2406;SDS011;37709;53.480;9.688;2023-03-25T11:52:26;2.23;;;0.97;;
2406;SDS011;37709;53.480;9.688;2023-03-25T11:55:18;2.23;;;0.60;;
2406;SDS011;37709;53.480;9.688;2023-03-25T11:57:54;1.33;;;0.87;;
2406;SDS011;37709;53.480;9.688;2023-03-25T12:08:42;3.70;;;1.47;;
2406;SDS011;37709;53.480;9.688;2023-03-25T12:11:30;1.90;;;1.17;;
2406;SDS011;37709;53.480;9.688;2023-03-25T12:14:11;4.87;;;1.97;;
2406;SDS011;37709;53.480;9.688;2023-03-25T12:16:59;3.00;;;1.53;;
2406;SDS011;37709;53.480;9.688;2023-03-25T12:27:58;3.90;;;1.90;;
2406;SDS011;37709;53.480;9.688;2023-03-25T12:33:24;2.73;;;1.80;;
2406;SDS011;37709;53.480;9.688;2023-03-25T12:39:08;5.00;;;1.97;;
2406;SDS011;37709;53.480;9.688;2023-03-25T12:41:54;5.87;;;2.70;;
2406;SDS011;37709;53.480;9.688;2023-03-25T12:44:38;5.73;;;2.67;;
2406;SDS011;37709;53.480;9.688;2023-03-25T12:47:41;5.90;;;2.57;;
2406;SDS011;37709;53.480;9.688;2023-03-25T12:50:22;6.17;;;3.40;;
2406;SDS011;37709;53.480;9.688;2023-03-25T12:58:43;9.63;;;4.07;;
2406;SDS011;37709;53.480;9.688;2023-03-25T13:01:31;3.87;;;3.50;;
2406;SDS011;37709;53.480;9.688;2023-03-25T13:04:37;5.33;;;3.23;;
2406;SDS011;37709;53.480;9.688;2023-03-25T13:07:19;7.37;;;3.83;;
2406;SDS011;37709;53.480;9.688;2023-03-25T13:12:57;5.77;;;2.80;;
2406;SDS011;37709;53.480;9.688;2023-03-25T13:15:28;3.20;;;2.10;;
2406;SDS011;37709;53.480;9.688;2023-03-25T13:18:08;4.90;;;1.70;;
2406;SDS011;37709;53.480;9.688;2023-03-25T13:20:42;4.03;;;2.20;;
2406;SDS011;37709;53.480;9.688;2023-03-25T13:23:18;2.97;;;1.30;;
2406;SDS011;37709;53.480;9.688;2023-03-25T13:25:55;6.13;;;2.00;;
2406;SDS011;37709;53.480;9.688;2023-03-25T13:28:27;2.93;;;2.03;;
2406;SDS011;37709;53.480;9.688;2023-03-25T13:31:06;2.40;;;1.30;;
2406;SDS011;37709;53.480;9.688;2023-03-25T13:33:52;1.80;;;1.47;;
2406;SDS011;37709;53.480;9.688;2023-03-25T13:36:36;6.13;;;1.73;;
2406;SDS011;37709;53.480;9.688;2023-03-25T13:39:14;2.37;;;1.33;;
2406;SDS011;37709;53.480;9.688;2023-03-25T13:41:47;3.27;;;1.37;;
2406;SDS011;37709;53.480;9.688;2023-03-25T13:44:32;3.27;;;1.20;;
2406;SDS011;37709;53.480;9.688;2023-03-25T13:47:06;3.20;;;1.30;;
2406;SDS011;37709;53.480;9.688;2023-03-25T13:49:51;5.20;;;1.43;;
2406;SDS011;37709;53.480;9.688;2023-03-25T13:52:28;5.37;;;1.33;;
2406;SDS011;37709;53.480;9.688;2023-03-25T13:55:03;3.83;;;1.43;;
2406;SDS011;37709;53.480;9.688;2023-03-25T13:57:46;4.17;;;1.20;;
2406;SDS011;37709;53.480;9.688;2023-03-25T14:00:42;3.47;;;1.40;;
2406;SDS011;37709;53.480;9.688;2023-03-25T14:03:31;4.67;;;1.90;;
2406;SDS011;37709;53.480;9.688;2023-03-25T14:06:50;2.57;;;1.50;;
2406;SDS011;37709;53.480;9.688;2023-03-25T14:12:38;8.70;;;1.97;;
2406;SDS011;37709;53.480;9.688;2023-03-25T14:15:14;4.00;;;1.40;;
2406;SDS011;37709;53.480;9.688;2023-03-25T14:17:52;2.60;;;1.53;;
2406;SDS011;37709;53.480;9.688;2023-03-25T14:20:23;4.23;;;1.30;;
2406;SDS011;37709;53.480;9.688;2023-03-25T14:23:00;4.90;;;1.80;;
2406;SDS011;37709;53.480;9.688;2023-03-25T14:25:37;6.90;;;1.50;;
2406;SDS011;37709;53.480;9.688;2023-03-25T14:28:11;4.97;;;1.60;;
2406;SDS011;37709;53.480;9.688;2023-03-25T14:39:08;5.60;;;1.30;;
2406;SDS011;37709;53.480;9.688;2023-03-25T14:41:53;2.30;;;1.17;;
2406;SDS011;37709;53.480;9.688;2023-03-25T14:44:22;2.33;;;1.20;;
2406;SDS011;37709;53.480;9.688;2023-03-25T14:46:58;3.63;;;1.37;;
2406;SDS011;37709;53.480;9.688;2023-03-25T14:49:49;3.33;;;1.30;;
2406;SDS011;37709;53.480;9.688;2023-03-25T14:52:31;4.00;;;1.10;;
2406;SDS011;37709;53.480;9.688;2023-03-25T14:55:28;5.57;;;1.50;;
2406;SDS011;37709;53.480;9.688;2023-03-25T14:58:01;3.17;;;1.00;;
2406;SDS011;37709;53.480;9.688;2023-03-25T15:00:33;3.47;;;0.90;;
2406;SDS011;37709;53.480;9.688;2023-03-25T15:03:10;6.10;;;1.47;;
2406;SDS011;37709;53.480;9.688;2023-03-25T15:05:42;3.07;;;1.13;;
2406;SDS011;37709;53.480;9.688;2023-03-25T15:08:11;2.70;;;1.03;;
2406;SDS011;37709;53.480;9.688;2023-03-25T15:10:43;10.23;;;2.37;;
2406;SDS011;37709;53.480;9.688;2023-03-25T15:13:25;6.30;;;1.30;;
2406;SDS011;37709;53.480;9.688;2023-03-25T15:15:57;2.27;;;0.83;;
2406;SDS011;37709;53.480;9.688;2023-03-25T15:21:04;2.13;;;0.90;;
2406;SDS011;37709;53.480;9.688;2023-03-25T15:26:17;3.13;;;1.40;;
2406;SDS011;37709;53.480;9.688;2023-03-25T15:35:36;1.10;;;0.87;;
2406;SDS011;37709;53.480;9.688;2023-03-25T15:38:22;1.53;;;1.40;;
2406;SDS011;37709;53.480;9.688;2023-03-25T15:41:23;2.60;;;1.30;;
2406;SDS011;37709;53.480;9.688;2023-03-25T15:47:09;5.17;;;1.47;;
2406;SDS011;37709;53.480;9.688;2023-03-25T15:52:13;7.20;;;1.60;;
2406;SDS011;37709;53.480;9.688;2023-03-25T15:55:06;2.83;;;1.20;;
2406;SDS011;37709;53.480;9.688;2023-03-25T15:57:48;1.30;;;1.20;;
2406;SDS011;37709;53.480;9.688;2023-03-25T16:03:14;1.73;;;1.10;;
2406;SDS011;37709;53.480;9.688;2023-03-25T16:05:48;2.60;;;1.50;;
2406;SDS011;37709;53.480;9.688;2023-03-25T16:08:21;2.10;;;1.70;;
2406;SDS011;37709;53.480;9.688;2023-03-25T16:11:12;2.30;;;1.60;;
2406;SDS011;37709;53.480;9.688;2023-03-25T16:13:42;3.60;;;1.50;;
2406;SDS011;37709;53.480;9.688;2023-03-25T16:16:10;5.63;;;2.83;;
2406;SDS011;37709;53.480;9.688;2023-03-25T16:18:40;4.97;;;2.10;;
2406;SDS011;37709;53.480;9.688;2023-03-25T16:21:11;5.63;;;2.37;;
2406;SDS011;37709;53.480;9.688;2023-03-25T16:23:40;2.80;;;1.17;;
2406;SDS011;37709;53.480;9.688;2023-03-25T16:26:10;1.73;;;0.80;;
2406;SDS011;37709;53.480;9.688;2023-03-25T16:28:42;4.57;;;0.83;;
2406;SDS011;37709;53.480;9.688;2023-03-25T16:31:29;4.33;;;0.80;;
2406;SDS011;37709;53.480;9.688;2023-03-25T16:34:00;4.50;;;0.70;;
2406;SDS011;37709;53.480;9.688;2023-03-25T16:36:28;4.13;;;0.93;;
2406;SDS011;37709;53.480;9.688;2023-03-25T16:38:56;1.13;;;0.63;;
2406;SDS011;37709;53.480;9.688;2023-03-25T16:41:23;2.27;;;1.10;;
2406;SDS011;37709;53.480;9.688;2023-03-25T16:43:51;5.07;;;1.43;;
2406;SDS011;37709;53.480;9.688;2023-03-25T16:46:20;6.50;;;1.23;;
2406;SDS011;37709;53.480;9.688;2023-03-25T16:48:51;7.67;;;1.70;;
2406;SDS011;37709;53.480;9.688;2023-03-25T16:51:21;3.53;;;1.23;;
2406;SDS011;37709;53.480;9.688;2023-03-25T16:53:55;7.00;;;1.30;;
2406;SDS011;37709;53.480;9.688;2023-03-25T16:56:29;1.60;;;1.00;;
2406;SDS011;37709;53.480;9.688;2023-03-25T17:01:38;2.93;;;1.90;;
2406;SDS011;37709;53.480;9.688;2023-03-25T17:04:15;1.23;;;1.00;;
2406;SDS011;37709;53.480;9.688;2023-03-25T17:06:48;3.00;;;1.67;;
2406;SDS011;37709;53.480;9.688;2023-03-25T17:09:23;2.43;;;1.60;;
2406;SDS011;37709;53.480;9.688;2023-03-25T17:12:00;4.90;;;2.47;;
2406;SDS011;37709;53.480;9.688;2023-03-25T17:14:33;3.13;;;1.57;;
2406;SDS011;37709;53.480;9.688;2023-03-25T17:17:06;4.10;;;2.47;;
2406;SDS011;37709;53.480;9.688;2023-03-25T17:19:43;3.80;;;1.70;;
2406;SDS011;37709;53.480;9.688;2023-03-25T17:22:19;3.23;;;1.70;;
2406;SDS011;37709;53.480;9.688;2023-03-25T17:24:53;3.17;;;1.50;;
2406;SDS011;37709;53.480;9.688;2023-03-25T17:27:24;3.00;;;1.87;;
2406;SDS011;37709;53.480;9.688;2023-03-25T17:30:19;1.93;;;1.40;;
2406;SDS011;37709;53.480;9.688;2023-03-25T17:32:47;4.97;;;1.10;;
2406;SDS011;37709;53.480;9.688;2023-03-25T17:35:16;1.90;;;1.20;;